createdAt,value
2018-02-18T00:02:02.572Z,18.37
2018-02-18T00:04:30.125Z,18.33
2018-02-18T00:06:57.641Z,18.17
2018-02-18T00:09:25.206Z,17.30
2018-02-18T00:11:52.768Z,16.83
2018-02-18T00:17:26.955Z,19.30
2018-02-18T00:19:54.520Z,18.47
2018-02-18T00:22:22.049Z,19.40
2018-02-18T00:24:49.559Z,17.97
2018-02-18T00:27:17.114Z,16.67
2018-02-18T00:29:44.651Z,17.07
2018-02-18T00:32:12.937Z,17.67
2018-02-18T00:34:41.251Z,17.27
2018-02-18T00:37:08.768Z,18.10
2018-02-18T00:39:36.320Z,18.10
2018-02-18T00:42:03.847Z,18.57
2018-02-18T00:44:32.168Z,19.07
2018-02-18T00:46:59.683Z,18.20
2018-02-18T00:49:27.200Z,17.63
2018-02-18T00:51:54.751Z,18.03
2018-02-18T00:54:23.034Z,18.80
2018-02-18T00:56:51.349Z,17.37
2018-02-18T00:59:18.874Z,18.60
2018-02-18T01:01:46.419Z,17.63
2018-02-18T01:04:13.933Z,17.90
2018-02-18T01:06:41.488Z,18.57
2018-02-18T01:09:09.035Z,18.43
2018-02-18T01:11:36.543Z,19.03
2018-02-18T01:14:04.101Z,17.37
2018-02-18T01:16:31.628Z,17.77
2018-02-18T01:18:59.220Z,17.37
2018-02-18T01:21:26.733Z,16.50
2018-02-18T01:23:54.265Z,15.80
2018-02-18T01:26:21.814Z,18.43
2018-02-18T01:28:49.331Z,17.00
2018-02-18T01:31:16.875Z,17.17
2018-02-18T01:33:44.388Z,16.53
2018-02-18T01:36:11.936Z,16.60
2018-02-18T01:38:39.460Z,16.40
2018-02-18T01:41:07.776Z,15.93
2018-02-18T01:43:35.324Z,17.10
2018-02-18T01:46:03.600Z,15.67
2018-02-18T01:48:31.916Z,17.93
2018-02-18T01:50:59.452Z,15.60
2018-02-18T01:53:26.971Z,18.77
2018-02-18T01:55:54.520Z,17.13
2018-02-18T01:58:22.055Z,16.20
2018-02-18T02:00:49.604Z,16.50
2018-02-18T02:03:17.123Z,16.40
2018-02-18T02:05:45.440Z,16.80
2018-02-18T02:08:12.993Z,14.97
2018-02-18T02:10:41.287Z,15.90
2018-02-18T02:13:08.845Z,17.30
2018-02-18T02:15:37.143Z,18.10
2018-02-18T02:18:05.496Z,18.57
2018-02-18T02:20:33.020Z,17.17
2018-02-18T02:23:00.580Z,17.83
2018-02-18T02:25:28.876Z,18.63
2018-02-18T02:27:57.184Z,19.93
2018-02-18T02:30:24.713Z,19.37
2018-02-18T02:32:52.264Z,20.63
2018-02-18T02:35:19.781Z,19.00
2018-02-18T02:37:47.349Z,22.70
2018-02-18T02:40:15.629Z,22.40
2018-02-18T02:42:43.915Z,23.27
2018-02-18T02:45:11.469Z,20.23
2018-02-18T02:47:38.989Z,19.53
2018-02-18T02:50:06.545Z,19.20
2018-02-18T02:52:34.828Z,17.57
2018-02-18T02:55:03.148Z,16.57
2018-02-18T02:57:30.677Z,16.63
2018-02-18T02:59:58.221Z,17.37
2018-02-18T03:02:25.744Z,16.23
2018-02-18T03:04:53.316Z,14.63
2018-02-18T03:07:21.612Z,15.97
2018-02-18T03:09:49.140Z,16.40
2018-02-18T03:12:16.692Z,16.50
2018-02-18T03:14:44.208Z,15.93
2018-02-18T03:17:12.537Z,16.43
2018-02-18T03:19:40.104Z,16.13
2018-02-18T03:22:07.667Z,16.63
2018-02-18T03:24:35.192Z,18.10
2018-02-18T03:27:02.748Z,17.37
2018-02-18T03:29:30.304Z,15.80
2018-02-18T03:31:57.824Z,16.63
2018-02-18T03:34:25.367Z,14.90
2018-02-18T03:36:52.876Z,15.97
2018-02-18T03:39:21.220Z,15.50
2018-02-18T03:41:48.736Z,15.20
2018-02-18T03:44:17.106Z,17.73
2018-02-18T03:46:44.630Z,18.13
2018-02-18T03:49:12.179Z,16.87
2018-02-18T03:51:39.699Z,16.43
2018-02-18T03:54:07.268Z,17.40
2018-02-18T03:56:34.821Z,17.07
2018-02-18T03:59:02.347Z,16.40
2018-02-18T04:01:29.893Z,16.60
2018-02-18T04:03:57.416Z,17.50
2018-02-18T04:06:25.745Z,16.60
2018-02-18T04:08:53.302Z,17.20
2018-02-18T04:11:20.824Z,19.40
2018-02-18T04:13:49.616Z,14.57
2018-02-18T04:16:17.148Z,16.17
2018-02-18T04:18:44.665Z,17.50
2018-02-18T04:21:12.225Z,15.90
2018-02-18T04:23:39.740Z,16.47
2018-02-18T04:26:07.290Z,17.23
2018-02-18T04:28:34.844Z,16.17
2018-02-18T04:31:02.356Z,16.90
2018-02-18T04:33:30.663Z,16.37
2018-02-18T04:35:58.188Z,15.40
2018-02-18T04:38:25.736Z,17.27
2018-02-18T04:40:53.253Z,18.37
2018-02-18T04:43:21.574Z,16.70
2018-02-18T04:45:49.095Z,18.60
2018-02-18T04:48:16.648Z,20.73
2018-02-18T04:50:44.178Z,19.20
2018-02-18T04:53:11.723Z,19.90
2018-02-18T04:55:40.008Z,20.80
2018-02-18T04:58:07.561Z,20.17
2018-02-18T05:00:35.080Z,18.50
2018-02-18T05:03:02.624Z,19.40
2018-02-18T05:05:30.138Z,19.27
2018-02-18T05:07:57.712Z,18.97
2018-02-18T05:10:25.234Z,18.47
2018-02-18T05:12:52.753Z,19.43
2018-02-18T05:15:20.309Z,19.30
2018-02-18T05:17:47.833Z,20.40
2018-02-18T05:20:15.404Z,19.20
2018-02-18T05:22:42.916Z,19.43
2018-02-18T05:25:11.241Z,20.77
2018-02-18T05:27:38.756Z,20.67
2018-02-18T05:30:06.305Z,23.27
2018-02-18T05:32:33.864Z,21.20
2018-02-18T05:35:01.392Z,22.13
2018-02-18T05:37:29.712Z,23.47
2018-02-18T05:39:57.236Z,21.97
2018-02-18T05:42:24.792Z,22.17
2018-02-18T05:44:52.316Z,20.30
2018-02-18T05:47:19.873Z,21.60
2018-02-18T05:49:48.160Z,20.83
2018-02-18T05:52:16.472Z,21.60
2018-02-18T05:54:43.992Z,21.43
2018-02-18T05:57:11.558Z,20.73
2018-02-18T05:59:39.880Z,20.60
2018-02-18T06:02:08.188Z,20.90
2018-02-18T06:04:35.716Z,25.30
2018-02-18T06:07:03.267Z,20.97
2018-02-18T06:09:31.588Z,22.20
2018-02-18T06:11:59.116Z,21.97
2018-02-18T06:14:26.680Z,20.20
2018-02-18T06:16:54.204Z,21.03
2018-02-18T06:19:21.769Z,20.17
2018-02-18T06:21:49.299Z,21.20
2018-02-18T06:24:16.816Z,21.87
2018-02-18T06:26:44.372Z,19.97
2018-02-18T06:29:11.931Z,21.67
2018-02-18T06:31:40.237Z,20.60
2018-02-18T06:34:07.784Z,20.47
2018-02-18T06:36:35.305Z,20.17
2018-02-18T06:39:02.860Z,18.87
2018-02-18T06:41:30.380Z,19.37
2018-02-18T06:43:57.940Z,21.73
2018-02-18T06:46:26.224Z,21.30
2018-02-18T06:48:54.541Z,22.43
2018-02-18T06:51:22.067Z,22.53
2018-02-18T06:53:49.612Z,23.77
2018-02-18T06:56:17.906Z,23.70
2018-02-18T06:58:45.463Z,23.00
2018-02-18T07:01:12.990Z,22.50
2018-02-18T07:03:41.441Z,23.53
2018-02-18T07:06:08.961Z,24.93
2018-02-18T07:08:37.280Z,22.03
2018-02-18T07:11:04.837Z,20.00
2018-02-18T07:13:32.354Z,19.57
2018-02-18T07:15:59.908Z,19.23
2018-02-18T07:18:27.432Z,20.87
2018-02-18T07:20:55.756Z,19.60
2018-02-18T07:23:23.284Z,17.90
2018-02-18T07:25:51.600Z,19.63
2018-02-18T07:28:19.128Z,19.30
2018-02-18T07:30:46.677Z,18.17
2018-02-18T07:33:14.216Z,17.37
2018-02-18T07:35:41.728Z,16.43
2018-02-18T07:38:09.278Z,18.60
2018-02-18T07:40:36.785Z,16.30
2018-02-18T07:43:04.332Z,16.57
2018-02-18T07:45:31.852Z,17.43
2018-02-18T07:47:59.399Z,17.30
2018-02-18T07:50:26.921Z,14.70
2018-02-18T07:52:54.468Z,16.50
2018-02-18T07:55:22.752Z,16.83
2018-02-18T07:57:50.298Z,16.20
2018-02-18T08:00:17.828Z,17.20
2018-02-18T08:02:45.376Z,16.43
2018-02-18T08:05:13.664Z,17.03
2018-02-18T08:07:42.001Z,14.93
2018-02-18T08:10:09.530Z,16.13
2018-02-18T08:12:37.880Z,17.20
2018-02-18T08:15:05.396Z,16.67
2018-02-18T08:17:33.687Z,17.27
2018-02-18T08:20:02.092Z,17.70
2018-02-18T08:22:29.621Z,18.50
2018-02-18T08:24:57.185Z,17.27
2018-02-18T08:27:24.701Z,17.53
2018-02-18T08:29:52.294Z,17.47
2018-02-18T08:32:19.864Z,19.77
2018-02-18T08:34:47.390Z,17.50
2018-02-18T08:37:14.951Z,15.00
2018-02-18T08:39:42.472Z,19.80
2018-02-18T08:42:10.026Z,17.73
2018-02-18T08:44:38.324Z,18.83
2018-02-18T08:47:05.890Z,20.80
2018-02-18T08:49:34.176Z,17.73
2018-02-18T08:52:02.504Z,18.10
2018-02-18T08:54:30.029Z,18.87
2018-02-18T08:56:57.588Z,19.13
2018-02-18T08:59:25.151Z,18.73
2018-02-18T09:01:52.713Z,18.47
2018-02-18T09:04:20.261Z,17.93
2018-02-18T09:06:47.831Z,18.93
2018-02-18T09:09:15.362Z,18.70
2018-02-18T09:11:43.712Z,18.67
2018-02-18T09:14:11.240Z,19.67
2018-02-18T09:16:39.532Z,17.80
2018-02-18T09:19:07.868Z,17.63
2018-02-18T09:21:35.393Z,19.70
2018-02-18T09:24:03.712Z,20.23
2018-02-18T09:26:31.251Z,18.20
2018-02-18T09:28:59.573Z,17.53
2018-02-18T09:31:27.097Z,19.60
2018-02-18T09:33:54.656Z,17.30
2018-02-18T09:36:22.216Z,21.43
2018-02-18T09:38:49.740Z,17.20
2018-02-18T09:41:17.292Z,19.67
2018-02-18T09:43:44.863Z,21.27
2018-02-18T09:46:13.152Z,18.90
2018-02-18T09:48:40.680Z,20.70
2018-02-18T09:51:08.228Z,19.40
2018-02-18T09:53:35.748Z,19.57
2018-02-18T09:56:03.300Z,19.30
2018-02-18T09:58:30.824Z,18.70
2018-02-18T10:00:59.144Z,19.70
2018-02-18T10:03:26.758Z,18.90
2018-02-18T10:05:54.302Z,18.20
2018-02-18T10:08:21.829Z,19.57
2018-02-18T10:10:49.393Z,19.30
2018-02-18T10:13:16.915Z,17.80
2018-02-18T10:15:44.500Z,18.63
2018-02-18T10:18:12.088Z,16.60
2018-02-18T10:20:39.616Z,17.97
2018-02-18T10:23:07.208Z,17.90
2018-02-18T10:25:34.734Z,17.30
2018-02-18T10:28:03.049Z,16.47
2018-02-18T10:30:30.607Z,17.23
2018-02-18T10:32:58.888Z,17.63
2018-02-18T10:35:26.440Z,16.87
2018-02-18T10:37:53.964Z,18.20
2018-02-18T10:40:21.516Z,16.93
2018-02-18T10:42:49.037Z,17.67
2018-02-18T10:45:16.593Z,17.40
2018-02-18T10:47:44.109Z,16.83
2018-02-18T10:50:11.664Z,17.30
2018-02-18T10:52:39.189Z,16.80
2018-02-18T10:55:06.764Z,16.77
2018-02-18T10:57:34.284Z,17.50
2018-02-18T11:00:01.844Z,15.97
2018-02-18T11:02:30.201Z,18.07
2018-02-18T11:04:57.752Z,17.57
2018-02-18T11:07:26.041Z,17.87
2018-02-18T11:09:53.607Z,19.00
2018-02-18T11:12:21.924Z,18.00
2018-02-18T11:14:50.332Z,16.57
2018-02-18T11:17:17.864Z,16.73
2018-02-18T11:19:46.156Z,16.60
2018-02-18T11:22:13.707Z,14.97
2018-02-18T11:24:41.232Z,15.30
2018-02-18T11:27:08.782Z,16.80
2018-02-18T11:29:36.305Z,17.57
2018-02-18T11:32:03.861Z,16.90
2018-02-18T11:34:31.409Z,18.40
2018-02-18T11:36:58.958Z,16.40
2018-02-18T11:39:27.272Z,15.63
2018-02-18T11:41:54.797Z,13.63
2018-02-18T11:44:22.357Z,13.63
2018-02-18T11:46:49.880Z,12.57
2018-02-18T11:49:17.445Z,13.10
2018-02-18T11:51:45.724Z,12.13
2018-02-18T11:54:14.000Z,13.90
2018-02-18T11:56:41.544Z,14.17
2018-02-18T11:59:09.061Z,13.60
2018-02-18T12:01:37.380Z,12.33
2018-02-18T12:04:04.902Z,13.77
2018-02-18T12:06:32.448Z,12.47
2018-02-18T12:08:59.969Z,15.03
2018-02-18T12:11:28.337Z,15.87
2018-02-18T12:13:55.881Z,15.17
2018-02-18T12:16:23.439Z,16.07
2018-02-18T12:18:50.968Z,16.80
2018-02-18T12:21:19.292Z,15.30
2018-02-18T12:23:46.816Z,15.57
2018-02-18T12:26:14.372Z,14.57
2018-02-18T12:28:41.905Z,18.13
2018-02-18T12:31:09.516Z,14.67
2018-02-18T12:33:37.045Z,12.87
2018-02-18T12:36:04.600Z,13.40
2018-02-18T12:38:32.113Z,11.70
2018-02-18T12:40:59.668Z,13.70
2018-02-18T12:43:27.200Z,10.23
2018-02-18T12:45:54.749Z,12.67
2018-02-18T12:48:22.266Z,12.80
2018-02-18T12:50:50.584Z,10.13
2018-02-18T12:53:18.100Z,11.47
2018-02-18T12:55:45.644Z,11.03
2018-02-18T12:58:13.170Z,10.63
2018-02-18T13:00:41.493Z,12.20
2018-02-18T13:03:09.042Z,11.70
2018-02-18T13:05:36.623Z,11.77
2018-02-18T13:08:04.132Z,10.70
2018-02-18T13:10:31.683Z,11.30
2018-02-18T13:12:59.237Z,9.60
2018-02-18T13:15:26.788Z,10.67
2018-02-18T13:17:55.073Z,10.23
2018-02-18T13:20:23.394Z,8.13
2018-02-18T13:22:51.829Z,9.40
2018-02-18T13:25:19.382Z,8.73
2018-02-18T13:27:46.944Z,8.27
2018-02-18T13:30:14.500Z,8.60
2018-02-18T13:32:42.068Z,8.40
2018-02-18T13:35:09.632Z,9.17
2018-02-18T13:37:37.156Z,7.87
2018-02-18T13:40:04.696Z,10.33
2018-02-18T13:42:32.262Z,9.00
2018-02-18T13:44:59.810Z,8.30
2018-02-18T13:47:28.093Z,10.23
2018-02-18T13:49:55.636Z,9.07
2018-02-18T13:52:23.151Z,8.90
2018-02-18T13:54:50.716Z,10.47
2018-02-18T13:57:19.031Z,9.40
2018-02-18T13:59:46.582Z,9.60
2018-02-18T14:02:14.869Z,9.73
2018-02-18T14:04:43.180Z,8.63
2018-02-18T14:07:10.696Z,7.47
2018-02-18T14:09:38.258Z,10.27
2018-02-18T14:12:05.787Z,9.60
2018-02-18T14:14:33.573Z,8.83
2018-02-18T14:17:01.601Z,8.40
2018-02-18T14:19:29.120Z,9.17
2018-02-18T14:21:56.675Z,11.13
2018-02-18T14:24:24.960Z,13.07
2018-02-18T14:26:53.272Z,12.07
2018-02-18T14:29:20.826Z,11.10
2018-02-18T14:31:49.108Z,12.10
2018-02-18T14:34:16.660Z,11.30
2018-02-18T14:36:44.199Z,10.47
2018-02-18T14:39:11.748Z,10.50
2018-02-18T14:41:51.187Z,12.77
2018-02-18T14:44:30.516Z,12.67
2018-02-18T14:47:09.835Z,9.73
2018-02-18T14:49:49.297Z,10.43
2018-02-18T14:52:28.653Z,13.60
2018-02-18T14:58:06.601Z,9.70
2018-02-18T15:00:34.144Z,10.80
2018-02-18T15:03:01.656Z,12.17
2018-02-18T15:05:29.214Z,12.10
2018-02-18T15:07:56.885Z,11.47
2018-02-18T15:10:24.401Z,13.20
2018-02-18T15:12:52.708Z,13.30
2018-02-18T15:15:20.290Z,14.10
2018-02-18T15:17:47.816Z,11.90
2018-02-18T15:20:15.369Z,14.73
2018-02-18T15:22:42.890Z,14.57
2018-02-18T15:25:11.223Z,15.83
2018-02-18T15:27:38.740Z,16.40
2018-02-18T15:30:07.057Z,13.60
2018-02-18T15:32:34.581Z,15.20
2018-02-18T15:35:02.132Z,15.93
2018-02-18T15:37:29.653Z,15.93
2018-02-18T15:39:57.985Z,16.57
2018-02-18T15:42:25.512Z,16.67
2018-02-18T15:44:53.796Z,16.03
2018-02-18T15:47:21.340Z,17.90
2018-02-18T15:49:48.860Z,15.03
2018-02-18T15:52:16.458Z,15.90
2018-02-18T15:54:43.981Z,15.97
2018-02-18T15:57:11.541Z,16.63
2018-02-18T15:59:39.078Z,15.83
2018-02-18T16:02:06.630Z,17.33
2018-02-18T16:04:34.144Z,17.70
2018-02-18T16:07:01.712Z,14.93
2018-02-18T16:09:29.260Z,17.57
2018-02-18T16:11:56.778Z,18.40
2018-02-18T16:14:24.356Z,18.30
2018-02-18T16:16:51.874Z,18.00
2018-02-18T16:19:19.433Z,17.50
2018-02-18T16:21:46.956Z,18.97
2018-02-18T16:24:14.567Z,16.90
2018-02-18T16:26:42.854Z,18.47
2018-02-18T16:29:11.147Z,19.13
2018-02-18T16:31:39.463Z,17.30
2018-02-18T16:34:06.989Z,17.63
2018-02-18T16:36:34.554Z,16.33
2018-02-18T16:39:02.861Z,16.40
2018-02-18T16:41:31.174Z,17.70
2018-02-18T16:43:58.687Z,18.60
2018-02-18T16:46:26.240Z,17.73
2018-02-18T16:48:53.756Z,18.50
2018-02-18T16:51:21.373Z,16.53
2018-02-18T16:53:48.888Z,17.70
2018-02-18T16:56:16.432Z,17.70
2018-02-18T16:58:43.948Z,19.60
2018-02-18T17:01:11.497Z,18.53
2018-02-18T17:03:39.041Z,18.37
2018-02-18T17:06:06.597Z,17.43
2018-02-18T17:08:34.144Z,19.07
2018-02-18T17:11:02.432Z,19.87
2018-02-18T17:13:29.984Z,17.63
2018-02-18T17:15:57.496Z,17.87
2018-02-18T17:18:25.061Z,18.57
2018-02-18T17:20:52.606Z,20.13
2018-02-18T17:23:20.136Z,18.73
2018-02-18T17:25:47.693Z,19.37
2018-02-18T17:28:15.224Z,20.07
2018-02-18T17:30:42.776Z,20.20
2018-02-18T17:33:10.298Z,18.37
2018-02-18T17:35:37.851Z,19.70
2018-02-18T17:38:06.140Z,20.10
2018-02-18T17:40:33.692Z,18.87
2018-02-18T17:43:01.257Z,20.00
2018-02-18T17:45:29.573Z,19.80
2018-02-18T17:47:57.096Z,20.47
2018-02-18T17:50:24.651Z,19.83
2018-02-18T17:52:52.164Z,19.40
2018-02-18T17:55:19.717Z,20.00
2018-02-18T17:57:47.311Z,18.27
2018-02-18T18:00:14.865Z,19.03
2018-02-18T18:02:42.380Z,19.17
2018-02-18T18:05:10.706Z,20.97
2018-02-18T18:07:38.586Z,21.57
2018-02-18T18:10:06.109Z,21.33
2018-02-18T18:12:33.640Z,20.43
2018-02-18T18:15:01.205Z,19.97
2018-02-18T18:17:28.719Z,21.13
2018-02-18T18:19:56.269Z,21.37
2018-02-18T18:22:23.793Z,20.47
2018-02-18T18:24:52.121Z,20.63
2018-02-18T18:27:19.677Z,20.80
2018-02-18T18:29:47.202Z,21.43
2018-02-18T18:32:14.754Z,22.17
2018-02-18T18:34:42.272Z,24.63
2018-02-18T18:37:09.836Z,23.00
2018-02-18T18:39:38.148Z,23.40
2018-02-18T18:42:05.693Z,24.30
2018-02-18T18:44:33.249Z,22.00
2018-02-18T18:47:01.094Z,23.67
2018-02-18T18:49:28.683Z,23.70
2018-02-18T18:51:56.235Z,26.70
2018-02-18T18:54:23.813Z,24.90
2018-02-18T18:56:51.336Z,24.10
2018-02-18T18:59:18.862Z,24.83
2018-02-18T19:01:46.470Z,23.53
2018-02-18T19:04:13.993Z,23.57
2018-02-18T19:06:41.548Z,23.47
2018-02-18T19:09:09.100Z,24.23
2018-02-18T19:11:40.933Z,26.13
2018-02-18T19:14:08.490Z,25.00
2018-02-18T19:16:38.696Z,24.30
2018-02-18T19:19:09.600Z,25.90
2018-02-18T19:21:37.287Z,26.60
2018-02-18T19:24:04.929Z,27.70
2018-02-18T19:26:32.470Z,24.47
2018-02-18T19:29:00.954Z,24.53
2018-02-18T19:34:16.707Z,20.60
2018-02-18T19:36:44.256Z,22.37
2018-02-18T19:39:12.569Z,19.70
2018-02-18T19:41:40.129Z,20.90
2018-02-18T19:44:08.412Z,18.20
2018-02-18T19:46:36.736Z,20.60
2018-02-18T19:49:04.250Z,19.90
2018-02-18T19:51:31.798Z,20.33
2018-02-18T19:53:59.364Z,18.97
2018-02-18T19:56:26.908Z,19.50
2018-02-18T19:58:54.429Z,20.47
2018-02-18T20:01:21.980Z,19.93
2018-02-18T20:03:49.623Z,19.87
2018-02-18T20:06:17.224Z,20.00
2018-02-18T20:08:44.744Z,20.23
2018-02-18T20:11:12.276Z,19.90
2018-02-18T20:13:39.848Z,19.83
2018-02-18T20:16:07.364Z,19.40
2018-02-18T20:18:35.117Z,21.10
2018-02-18T20:21:02.666Z,20.23
2018-02-18T20:23:30.238Z,18.30
2018-02-18T20:25:57.800Z,19.73
2018-02-18T20:28:25.366Z,19.43
2018-02-18T20:30:52.981Z,20.43
2018-02-18T20:33:20.548Z,19.80
2018-02-18T20:35:48.100Z,20.73
2018-02-18T20:38:15.621Z,21.60
2018-02-18T20:40:43.177Z,23.33
2018-02-18T20:43:10.749Z,23.97
2018-02-18T20:45:38.360Z,23.20
2018-02-18T20:48:05.887Z,23.47
2018-02-18T20:50:33.400Z,21.77
2018-02-18T20:53:00.960Z,22.67
2018-02-18T20:55:28.501Z,23.47
2018-02-18T20:57:56.044Z,24.50
2018-02-18T21:00:23.572Z,23.83
2018-02-18T21:02:51.889Z,24.40
2018-02-18T21:05:19.420Z,23.00
2018-02-18T21:07:46.977Z,22.67
2018-02-18T21:10:14.537Z,22.50
2018-02-18T21:12:42.059Z,22.60
2018-02-18T21:15:09.605Z,24.33
2018-02-18T21:17:37.165Z,24.07
2018-02-18T21:20:04.784Z,23.97
2018-02-18T21:22:32.314Z,24.80
2018-02-18T21:24:59.888Z,24.97
2018-02-18T21:27:27.410Z,25.33
2018-02-18T21:29:54.943Z,25.20
2018-02-18T21:32:22.524Z,26.27
2018-02-18T21:34:50.039Z,27.40
2018-02-18T21:37:17.598Z,28.07
2018-02-18T21:39:45.131Z,27.30
2018-02-18T21:42:12.699Z,28.73
2018-02-18T21:44:40.237Z,28.37
2018-02-18T21:47:07.810Z,27.60
2018-02-18T21:49:35.332Z,29.57
2018-02-18T21:52:03.620Z,27.00
2018-02-18T21:54:31.173Z,29.70
2018-02-18T21:56:58.744Z,26.03
2018-02-18T21:59:26.276Z,25.20
2018-02-18T22:01:53.848Z,23.90
2018-02-18T22:04:21.368Z,24.50
2018-02-18T22:06:48.923Z,25.17
2018-02-18T22:09:16.466Z,26.17
2018-02-18T22:11:43.981Z,27.20
2018-02-18T22:14:11.540Z,27.60
2018-02-18T22:16:39.065Z,26.13
2018-02-18T22:19:06.622Z,26.53
2018-02-18T22:21:34.140Z,27.40
2018-02-18T22:24:01.692Z,27.87
2018-02-18T22:26:29.214Z,26.70
2018-02-18T22:28:56.824Z,28.23
2018-02-18T22:31:24.360Z,29.80
2018-02-18T22:33:51.918Z,30.53
2018-02-18T22:36:19.456Z,29.03
2018-02-18T22:38:47.041Z,29.30
2018-02-18T22:41:14.592Z,25.80
2018-02-18T22:43:42.153Z,26.97
2018-02-18T22:46:09.683Z,24.40
2018-02-18T22:48:37.237Z,22.50
2018-02-18T22:51:04.768Z,24.80
2018-02-18T22:53:33.087Z,23.97
2018-02-18T22:56:00.621Z,25.70
2018-02-18T22:58:28.945Z,24.90
2018-02-18T23:00:56.456Z,22.43
2018-02-18T23:03:24.003Z,24.93
2018-02-18T23:05:52.313Z,26.27
2018-02-18T23:08:19.875Z,27.70
2018-02-18T23:10:47.440Z,26.90
2018-02-18T23:13:14.974Z,23.63
2018-02-18T23:15:42.504Z,26.50
2018-02-18T23:18:10.068Z,23.70
2018-02-18T23:20:49.556Z,23.27
2018-02-18T23:23:17.880Z,23.70
2018-02-18T23:25:45.414Z,24.30
2018-02-18T23:28:13.744Z,24.23
2018-02-18T23:30:41.269Z,26.27
2018-02-18T23:33:08.821Z,26.67
2018-02-18T23:35:36.344Z,24.67
2018-02-18T23:38:03.944Z,24.20
2018-02-18T23:40:31.481Z,26.40
2018-02-18T23:42:59.804Z,25.47
2018-02-18T23:45:27.328Z,27.40
2018-02-18T23:47:54.889Z,24.33
2018-02-18T23:50:22.412Z,27.23
2018-02-18T23:52:49.936Z,28.53
2018-02-18T23:55:17.496Z,29.00
2018-02-18T23:57:45.034Z,27.10
